createdAt,value
2022-10-26T00:00:32.674Z,3.75
2022-10-26T00:01:34.343Z,3.20
2022-10-26T00:02:36.103Z,3.95
2022-10-26T00:03:38.961Z,3.10
2022-10-26T00:04:40.709Z,5.53
2022-10-26T00:05:43.017Z,3.72
2022-10-26T00:06:44.795Z,3.40
2022-10-26T00:07:46.671Z,3.28
2022-10-26T00:08:49.104Z,3.30
2022-10-26T00:09:50.702Z,3.60
2022-10-26T00:10:52.283Z,3.22
2022-10-26T00:11:53.999Z,3.83
2022-10-26T00:12:55.657Z,3.80
2022-10-26T00:13:57.275Z,3.40
2022-10-26T00:14:58.919Z,3.53
2022-10-26T00:16:01.349Z,2.97
2022-10-26T00:17:03.082Z,3.50
2022-10-26T00:18:04.714Z,2.85
2022-10-26T00:19:06.482Z,3.20
2022-10-26T00:20:08.565Z,3.80
2022-10-26T00:21:10.886Z,3.45
2022-10-26T00:22:12.653Z,3.70
2022-10-26T00:23:14.347Z,3.30
2022-10-26T00:25:17.586Z,3.42
2022-10-26T00:26:19.248Z,3.55
2022-10-26T00:27:20.869Z,4.07
2022-10-26T00:28:22.645Z,3.72
2022-10-26T00:29:24.359Z,3.85
2022-10-26T00:30:26.549Z,4.15
2022-10-26T00:31:28.148Z,3.72
2022-10-26T00:32:29.852Z,3.63
2022-10-26T00:33:32.410Z,3.72
2022-10-26T00:34:34.008Z,3.45
2022-10-26T00:35:45.550Z,3.72
2022-10-26T00:36:47.934Z,3.97
2022-10-26T00:37:53.785Z,4.18
2022-10-26T00:38:56.756Z,3.60
2022-10-26T00:39:58.415Z,4.50
2022-10-26T00:41:00.238Z,3.70
2022-10-26T00:42:01.967Z,3.80
2022-10-26T00:43:03.761Z,3.47
2022-10-26T00:44:43.322Z,3.67
2022-10-26T00:45:46.030Z,3.85
2022-10-26T00:46:47.623Z,3.85
2022-10-26T00:48:10.114Z,3.40
2022-10-26T00:49:16.048Z,3.15
2022-10-26T00:50:41.564Z,3.60
2022-10-26T00:51:48.484Z,3.15
2022-10-26T00:52:52.791Z,3.40
2022-10-26T00:53:55.655Z,3.60
2022-10-26T00:54:57.352Z,3.03
2022-10-26T00:55:59.256Z,3.92
2022-10-26T00:57:00.943Z,3.33
2022-10-26T00:58:06.603Z,3.47
2022-10-26T00:59:11.191Z,3.53
2022-10-26T01:00:12.991Z,3.72
2022-10-26T01:01:14.956Z,3.25
2022-10-26T01:02:16.602Z,3.50
2022-10-26T01:03:18.960Z,3.65
2022-10-26T01:04:21.897Z,3.70
2022-10-26T01:05:24.392Z,4.22
2022-10-26T01:06:30.350Z,3.30
2022-10-26T01:07:32.819Z,4.25
2022-10-26T01:08:34.762Z,4.05
2022-10-26T01:09:36.560Z,4.63
2022-10-26T01:10:41.680Z,4.32
2022-10-26T01:11:43.276Z,3.97
2022-10-26T01:12:45.780Z,4.03
2022-10-26T01:13:49.806Z,4.45
2022-10-26T01:14:51.814Z,4.05
2022-10-26T01:16:20.304Z,4.03
2022-10-26T01:17:46.912Z,3.60
2022-10-26T01:19:19.151Z,4.15
2022-10-26T01:21:02.267Z,4.68
2022-10-26T01:22:17.281Z,4.70
2022-10-26T01:23:34.061Z,4.22
2022-10-26T01:24:41.467Z,4.82
2022-10-26T01:26:30.809Z,4.80
2022-10-26T01:27:45.806Z,4.50
2022-10-26T01:29:02.880Z,4.25
2022-10-26T01:30:25.021Z,4.82
2022-10-26T01:31:39.268Z,5.15
2022-10-26T01:33:05.791Z,4.50
2022-10-26T01:34:15.016Z,4.40
2022-10-26T01:35:24.200Z,4.78
2022-10-26T01:36:35.001Z,4.75
2022-10-26T01:37:59.368Z,4.35
2022-10-26T01:39:24.243Z,4.90
2022-10-26T01:40:32.621Z,4.50
2022-10-26T01:41:50.615Z,4.35
2022-10-26T01:42:55.286Z,4.82
2022-10-26T01:44:04.202Z,4.32
2022-10-26T01:45:09.785Z,3.95
2022-10-26T01:46:12.873Z,3.90
2022-10-26T01:47:17.065Z,4.40
2022-10-26T01:48:22.839Z,4.32
2022-10-26T01:49:33.980Z,4.25
2022-10-26T01:50:36.068Z,4.45
2022-10-26T01:51:40.328Z,4.18
2022-10-26T01:52:41.932Z,3.65
2022-10-26T01:53:46.714Z,3.15
2022-10-26T01:54:48.404Z,4.15
2022-10-26T01:55:54.515Z,4.13
2022-10-26T01:57:02.071Z,4.07
2022-10-26T01:58:27.104Z,4.00
2022-10-26T01:59:53.790Z,4.20
2022-10-26T02:01:14.586Z,4.28
2022-10-26T02:02:38.049Z,4.20
2022-10-26T02:04:19.905Z,4.60
2022-10-26T02:05:42.908Z,4.43
2022-10-26T02:07:06.195Z,3.80
2022-10-26T02:08:27.684Z,4.32
2022-10-26T02:09:44.370Z,4.25
2022-10-26T02:11:01.014Z,3.80
2022-10-26T02:12:09.871Z,4.60
2022-10-26T02:13:39.408Z,4.18
2022-10-26T02:14:49.454Z,3.80
2022-10-26T02:15:55.725Z,4.70
2022-10-26T02:17:05.548Z,3.72
2022-10-26T02:18:10.096Z,4.38
2022-10-26T02:19:33.064Z,4.28
2022-10-26T02:20:51.133Z,4.18
2022-10-26T02:22:02.135Z,3.40
2022-10-26T02:23:07.663Z,3.88
2022-10-26T02:24:12.379Z,4.35
2022-10-26T02:25:35.815Z,4.20
2022-10-26T02:26:40.783Z,4.20
2022-10-26T02:27:50.667Z,4.25
2022-10-26T02:28:58.235Z,4.65
2022-10-26T02:30:01.642Z,4.00
2022-10-26T02:31:05.612Z,4.10
2022-10-26T02:32:08.930Z,4.80
2022-10-26T02:33:13.736Z,4.22
2022-10-26T02:34:21.866Z,4.70
2022-10-26T02:35:28.971Z,4.13
2022-10-26T02:36:34.678Z,4.38
2022-10-26T02:37:37.823Z,4.32
2022-10-26T02:38:41.375Z,3.83
2022-10-26T02:39:45.527Z,4.68
2022-10-26T02:40:49.513Z,3.60
2022-10-26T02:41:52.342Z,4.03
2022-10-26T02:42:57.699Z,3.75
2022-10-26T02:44:29.309Z,3.90
2022-10-26T02:45:54.004Z,4.05
2022-10-26T02:46:56.660Z,3.97
2022-10-26T02:47:58.495Z,4.30
2022-10-26T02:49:00.698Z,3.85
2022-10-26T02:50:03.283Z,3.65
2022-10-26T02:51:12.579Z,4.45
2022-10-26T02:52:37.926Z,4.47
2022-10-26T02:54:00.544Z,4.25
2022-10-26T02:55:18.081Z,4.88
2022-10-26T02:56:36.566Z,4.57
2022-10-26T02:57:41.232Z,3.90
2022-10-26T02:58:47.688Z,3.60
2022-10-26T02:59:49.813Z,4.13
2022-10-26T03:00:52.453Z,3.80
2022-10-26T03:01:54.813Z,4.10
2022-10-26T03:02:58.583Z,4.35
2022-10-26T03:04:00.322Z,4.15
2022-10-26T03:05:17.883Z,3.95
2022-10-26T03:06:23.249Z,3.97
2022-10-26T03:07:25.758Z,4.90
2022-10-26T03:09:33.964Z,3.90
2022-10-26T03:10:44.307Z,4.20
2022-10-26T03:11:45.927Z,3.95
2022-10-26T03:12:48.246Z,3.75
2022-10-26T03:13:50.121Z,3.90
2022-10-26T03:14:51.703Z,3.78
2022-10-26T03:15:57.317Z,4.25
2022-10-26T03:16:58.906Z,3.88
2022-10-26T03:18:00.660Z,4.13
2022-10-26T03:19:02.247Z,3.65
2022-10-26T03:20:04.970Z,4.25
2022-10-26T03:21:06.609Z,4.13
2022-10-26T03:22:08.188Z,4.40
2022-10-26T03:23:09.785Z,4.00
2022-10-26T03:24:11.424Z,4.05
2022-10-26T03:25:13.037Z,4.75
2022-10-26T03:26:14.653Z,4.72
2022-10-26T03:27:16.392Z,4.28
2022-10-26T03:28:18.136Z,3.67
2022-10-26T03:29:19.773Z,3.70
2022-10-26T03:30:21.361Z,3.65
2022-10-26T03:31:22.988Z,4.05
2022-10-26T03:32:24.657Z,4.40
2022-10-26T03:33:27.278Z,4.13
2022-10-26T03:34:29.695Z,4.07
2022-10-26T03:35:31.642Z,3.47
2022-10-26T03:36:33.971Z,4.45
2022-10-26T03:37:35.696Z,3.90
2022-10-26T03:38:37.382Z,4.60
2022-10-26T03:39:38.976Z,4.00
2022-10-26T03:40:41.321Z,3.80
2022-10-26T03:41:44.165Z,4.07
2022-10-26T03:42:46.033Z,3.85
2022-10-26T03:43:48.797Z,3.95
2022-10-26T03:44:50.444Z,3.50
2022-10-26T03:45:52.084Z,3.78
2022-10-26T03:46:53.683Z,3.65
2022-10-26T03:47:55.331Z,3.60
2022-10-26T03:48:56.966Z,3.88
2022-10-26T03:49:58.891Z,3.60
2022-10-26T03:51:00.594Z,4.63
2022-10-26T03:52:02.571Z,4.50
2022-10-26T03:53:04.348Z,4.18
2022-10-26T03:54:06.465Z,4.60
2022-10-26T03:55:09.646Z,4.45
2022-10-26T03:56:11.220Z,3.83
2022-10-26T03:57:12.812Z,4.55
2022-10-26T03:58:14.514Z,4.88
2022-10-26T03:59:16.208Z,4.78
2022-10-26T04:00:18.855Z,4.68
2022-10-26T04:01:20.517Z,5.03
2022-10-26T04:02:22.241Z,4.10
2022-10-26T04:03:23.916Z,4.80
2022-10-26T04:04:25.984Z,4.00
2022-10-26T04:05:29.224Z,3.85
2022-10-26T04:06:30.869Z,4.32
2022-10-26T04:07:32.433Z,4.45
2022-10-26T04:08:34.183Z,4.60
2022-10-26T04:09:35.800Z,3.95
2022-10-26T04:10:37.573Z,3.85
2022-10-26T04:11:39.153Z,3.97
2022-10-26T04:12:40.730Z,3.72
2022-10-26T04:13:42.379Z,3.67
2022-10-26T04:14:44.147Z,3.65
2022-10-26T04:15:45.808Z,3.17
2022-10-26T04:16:47.424Z,3.88
2022-10-26T04:17:49.231Z,3.58
2022-10-26T04:18:50.968Z,4.18
2022-10-26T04:19:52.662Z,3.60
2022-10-26T04:20:54.249Z,4.53
2022-10-26T04:21:55.832Z,4.43
2022-10-26T04:23:02.480Z,3.70
2022-10-26T04:24:04.365Z,3.50
2022-10-26T04:25:08.068Z,3.97
2022-10-26T04:26:09.642Z,4.03
2022-10-26T04:27:11.388Z,4.60
2022-10-26T04:28:13.857Z,3.88
2022-10-26T04:29:15.426Z,4.32
2022-10-26T04:30:17.050Z,4.03
2022-10-26T04:31:18.701Z,4.22
2022-10-26T04:32:20.350Z,3.83
2022-10-26T04:33:21.997Z,3.50
2022-10-26T04:34:23.584Z,4.00
2022-10-26T04:35:25.431Z,3.50
2022-10-26T04:36:27.046Z,3.88
2022-10-26T04:37:28.652Z,3.42
2022-10-26T04:38:30.292Z,3.88
2022-10-26T04:39:31.886Z,3.92
2022-10-26T04:40:34.688Z,3.78
2022-10-26T04:41:36.289Z,3.60
2022-10-26T04:42:45.365Z,4.13
2022-10-26T04:43:46.953Z,4.05
2022-10-26T04:44:48.656Z,4.32
2022-10-26T04:45:50.257Z,3.50
2022-10-26T04:46:51.837Z,3.95
2022-10-26T04:48:04.841Z,3.88
2022-10-26T04:49:06.515Z,3.80
2022-10-26T04:50:09.864Z,3.83
2022-10-26T04:51:11.710Z,3.42
2022-10-26T04:52:13.283Z,3.38
2022-10-26T04:53:14.990Z,3.28
2022-10-26T04:54:16.656Z,3.50
2022-10-26T04:55:18.243Z,3.38
2022-10-26T04:56:20.080Z,3.40
2022-10-26T04:57:21.651Z,4.03
2022-10-26T04:58:23.246Z,3.50
2022-10-26T04:59:24.887Z,3.95
2022-10-26T05:00:26.944Z,3.53
2022-10-26T05:01:28.666Z,4.10
2022-10-26T05:02:30.455Z,4.32
2022-10-26T05:03:32.182Z,3.35
2022-10-26T05:04:33.758Z,4.10
2022-10-26T05:05:37.556Z,3.60
2022-10-26T05:06:39.166Z,3.72
2022-10-26T05:07:40.774Z,3.67
2022-10-26T05:08:42.446Z,3.63
2022-10-26T05:09:44.125Z,5.47
2022-10-26T05:10:50.172Z,4.80
2022-10-26T05:11:51.800Z,4.60
2022-10-26T05:12:59.163Z,4.47
2022-10-26T05:14:00.734Z,4.65
2022-10-26T05:15:05.049Z,4.45
2022-10-26T05:16:09.385Z,4.20
2022-10-26T05:17:11.030Z,5.70
2022-10-26T05:18:12.635Z,6.43
2022-10-26T05:19:14.272Z,5.25
2022-10-26T05:20:15.975Z,4.88
2022-10-26T05:21:19.709Z,4.95
2022-10-26T05:22:25.692Z,4.30
2022-10-26T05:23:27.292Z,4.32
2022-10-26T05:24:28.919Z,4.40
2022-10-26T05:25:32.446Z,4.85
2022-10-26T05:26:34.144Z,5.22
2022-10-26T05:27:35.764Z,5.32
2022-10-26T05:28:37.344Z,4.95
2022-10-26T05:29:38.945Z,5.00
2022-10-26T05:30:42.217Z,5.00
2022-10-26T05:31:43.883Z,4.50
2022-10-26T05:32:45.525Z,4.40
2022-10-26T05:33:51.317Z,5.07
2022-10-26T05:34:52.892Z,5.35
2022-10-26T05:35:55.398Z,5.07
2022-10-26T05:36:57.046Z,5.47
2022-10-26T05:37:59.093Z,4.20
2022-10-26T05:39:00.874Z,4.55
2022-10-26T05:40:02.501Z,4.50
2022-10-26T05:41:04.257Z,5.30
2022-10-26T05:42:05.912Z,4.78
2022-10-26T05:43:07.540Z,4.30
2022-10-26T05:44:09.150Z,4.95
2022-10-26T05:45:11.238Z,4.47
2022-10-26T05:46:12.815Z,4.90
2022-10-26T05:47:14.483Z,4.50
2022-10-26T05:48:16.115Z,3.90
2022-10-26T05:49:17.898Z,4.07
2022-10-26T05:50:19.510Z,4.72
2022-10-26T05:51:21.166Z,3.92
2022-10-26T05:52:22.755Z,4.40
2022-10-26T05:53:24.354Z,4.50
2022-10-26T05:54:25.937Z,4.85
2022-10-26T05:55:27.938Z,4.43
2022-10-26T05:56:36.270Z,5.38
2022-10-26T05:57:38.501Z,4.25
2022-10-26T05:58:40.561Z,4.70
2022-10-26T05:59:42.436Z,4.05
2022-10-26T06:01:03.624Z,4.93
2022-10-26T06:02:24.160Z,4.18
2022-10-26T06:03:34.759Z,7.72
2022-10-26T06:04:47.887Z,8.43
2022-10-26T06:05:55.702Z,6.28
2022-10-26T06:06:58.629Z,5.35
2022-10-26T06:08:00.456Z,4.63
2022-10-26T06:09:02.342Z,5.00
2022-10-26T06:10:04.810Z,4.82
2022-10-26T06:11:07.774Z,5.00
2022-10-26T06:12:12.630Z,4.55
2022-10-26T06:13:16.846Z,4.50
2022-10-26T06:14:18.657Z,4.45
2022-10-26T06:15:22.185Z,4.55
2022-10-26T06:16:45.956Z,4.82
2022-10-26T06:18:04.446Z,4.65
2022-10-26T06:19:15.444Z,5.05
2022-10-26T06:20:29.356Z,5.47
2022-10-26T06:21:52.593Z,5.13
2022-10-26T06:23:21.602Z,6.57
2022-10-26T06:24:50.495Z,6.05
2022-10-26T06:26:17.108Z,6.85
2022-10-26T06:27:54.939Z,6.88
2022-10-26T06:29:21.164Z,8.50
2022-10-26T06:30:23.416Z,7.20
2022-10-26T06:31:25.186Z,5.70
2022-10-26T06:32:27.155Z,5.30
2022-10-26T06:33:30.499Z,5.18
2022-10-26T06:34:37.617Z,5.40
2022-10-26T06:35:45.312Z,5.00
2022-10-26T06:36:48.822Z,4.75
2022-10-26T06:37:52.726Z,5.20
2022-10-26T06:39:04.718Z,4.95
2022-10-26T06:40:07.007Z,5.10
2022-10-26T06:41:09.909Z,4.75
2022-10-26T06:42:12.097Z,5.20
2022-10-26T06:43:25.552Z,5.55
2022-10-26T06:44:27.722Z,5.03
2022-10-26T06:45:29.710Z,5.43
2022-10-26T06:46:46.029Z,6.18
2022-10-26T06:48:10.061Z,5.95
2022-10-26T06:49:36.381Z,5.20
2022-10-26T06:50:45.011Z,5.30
2022-10-26T06:52:09.623Z,6.00
2022-10-26T06:53:30.215Z,5.78
2022-10-26T06:54:49.453Z,5.70
2022-10-26T06:55:51.411Z,5.20
2022-10-26T06:56:53.511Z,4.85
2022-10-26T06:57:55.766Z,5.18
2022-10-26T06:59:07.131Z,5.03
2022-10-26T07:00:15.972Z,5.97
2022-10-26T07:01:18.461Z,6.35
2022-10-26T07:02:20.892Z,5.55
2022-10-26T07:03:22.946Z,5.20
2022-10-26T07:04:24.553Z,5.70
2022-10-26T07:05:26.146Z,6.03
2022-10-26T07:06:27.768Z,5.88
2022-10-26T07:07:31.046Z,5.85
2022-10-26T07:08:32.808Z,6.45
2022-10-26T07:09:34.492Z,5.50
2022-10-26T07:10:38.816Z,5.53
2022-10-26T07:11:40.412Z,6.30
2022-10-26T07:12:42.036Z,6.30
2022-10-26T07:13:43.634Z,15.90
2022-10-26T07:14:45.339Z,6.20
2022-10-26T07:15:48.036Z,6.13
2022-10-26T07:16:49.611Z,5.70
2022-10-26T07:17:51.472Z,5.13
2022-10-26T07:18:53.429Z,4.28
2022-10-26T07:19:55.209Z,4.30
2022-10-26T07:20:58.869Z,5.00
2022-10-26T07:22:01.180Z,5.00
2022-10-26T07:23:02.790Z,4.55
2022-10-26T07:24:04.599Z,5.40
2022-10-26T07:25:08.166Z,4.88
2022-10-26T07:26:09.749Z,5.00
2022-10-26T07:27:11.341Z,4.85
2022-10-26T07:28:12.957Z,5.15
2022-10-26T07:29:16.320Z,4.65
2022-10-26T07:30:18.427Z,5.30
2022-10-26T07:31:20.067Z,4.93
2022-10-26T07:32:21.738Z,4.68
2022-10-26T07:33:23.327Z,4.90
2022-10-26T07:34:24.977Z,4.55
2022-10-26T07:35:26.744Z,4.15
2022-10-26T07:36:29.154Z,4.75
2022-10-26T07:37:30.723Z,5.07
2022-10-26T07:38:32.573Z,4.60
2022-10-26T07:39:34.201Z,4.20
2022-10-26T07:40:37.927Z,4.85
2022-10-26T07:41:39.609Z,4.80
2022-10-26T07:42:43.116Z,5.57
2022-10-26T07:43:49.039Z,5.30
2022-10-26T07:44:50.621Z,4.57
2022-10-26T07:45:52.315Z,5.35
2022-10-26T07:46:53.929Z,5.40
2022-10-26T07:47:55.778Z,5.72
2022-10-26T07:48:57.385Z,5.30
2022-10-26T07:49:59.030Z,5.70
2022-10-26T07:51:03.093Z,5.10
2022-10-26T07:52:05.203Z,5.13
2022-10-26T07:53:06.823Z,5.78
2022-10-26T07:54:08.477Z,5.38
2022-10-26T07:55:11.577Z,5.80
2022-10-26T07:56:13.568Z,5.80
2022-10-26T07:57:17.356Z,4.63
2022-10-26T07:58:23.429Z,5.72
2022-10-26T07:59:25.055Z,5.80
2022-10-26T08:00:28.775Z,5.30
2022-10-26T08:01:30.815Z,5.30
2022-10-26T08:02:32.934Z,4.50
2022-10-26T08:03:34.711Z,4.63
2022-10-26T08:04:36.300Z,5.38
2022-10-26T08:05:37.898Z,5.25
2022-10-26T08:06:39.539Z,4.95
2022-10-26T08:07:44.825Z,5.15
2022-10-26T08:08:47.694Z,5.43
2022-10-26T08:09:49.487Z,5.13
2022-10-26T08:10:52.379Z,4.88
2022-10-26T08:11:54.005Z,5.32
2022-10-26T08:12:55.633Z,4.93
2022-10-26T08:13:57.233Z,4.88
2022-10-26T08:14:58.811Z,5.65
2022-10-26T08:16:03.272Z,6.10
2022-10-26T08:17:04.945Z,5.35
2022-10-26T08:18:07.132Z,5.53
2022-10-26T08:19:08.710Z,6.18
2022-10-26T08:20:10.866Z,5.88
2022-10-26T08:21:15.565Z,5.30
2022-10-26T08:22:23.120Z,5.93
2022-10-26T08:23:24.780Z,5.38
2022-10-26T08:24:26.375Z,5.70
2022-10-26T08:25:27.966Z,5.10
2022-10-26T08:26:30.561Z,6.10
2022-10-26T08:27:32.402Z,6.88
2022-10-26T08:28:34.114Z,5.40
2022-10-26T08:29:35.743Z,5.65
2022-10-26T08:30:37.337Z,7.03
2022-10-26T08:31:38.938Z,6.85
2022-10-26T08:32:42.376Z,6.90
2022-10-26T08:33:45.050Z,6.25
2022-10-26T08:34:46.951Z,6.30
2022-10-26T08:35:48.648Z,6.53
2022-10-26T08:36:50.507Z,7.43
2022-10-26T08:37:53.342Z,6.50
2022-10-26T08:38:55.017Z,6.30
2022-10-26T08:39:58.430Z,5.93
2022-10-26T08:41:08.816Z,7.10
2022-10-26T08:42:28.136Z,5.85
2022-10-26T08:43:54.157Z,6.82
2022-10-26T08:45:07.523Z,7.43
2022-10-26T08:46:23.882Z,7.28
2022-10-26T08:47:37.920Z,6.70
2022-10-26T08:48:44.953Z,6.25
2022-10-26T08:49:50.804Z,6.63
2022-10-26T08:51:01.046Z,6.95
2022-10-26T08:52:03.126Z,6.32
2022-10-26T08:53:13.511Z,6.00
2022-10-26T08:54:19.127Z,7.53
2022-10-26T08:55:26.472Z,6.40
2022-10-26T08:56:37.775Z,6.65
2022-10-26T08:57:41.729Z,6.70
2022-10-26T08:58:50.070Z,7.10
2022-10-26T09:00:22.672Z,6.13
2022-10-26T09:01:24.897Z,6.40
2022-10-26T09:02:26.683Z,6.50
2022-10-26T09:03:28.322Z,7.10
2022-10-26T09:04:32.232Z,7.05
2022-10-26T09:05:57.022Z,6.35
2022-10-26T09:07:32.838Z,6.45
2022-10-26T09:08:45.592Z,6.85
2022-10-26T09:10:16.509Z,5.97
2022-10-26T09:11:46.196Z,7.45
2022-10-26T09:13:01.902Z,6.03
2022-10-26T09:14:32.029Z,7.65
2022-10-26T09:15:49.623Z,6.20
2022-10-26T09:16:59.475Z,7.20
2022-10-26T09:18:34.333Z,7.05
2022-10-26T09:20:26.498Z,6.15
2022-10-26T09:21:47.356Z,6.93
2022-10-26T09:23:01.460Z,6.20
2022-10-26T09:24:12.170Z,5.95
2022-10-26T09:25:23.377Z,7.20
2022-10-26T09:26:40.153Z,7.50
2022-10-26T09:27:46.938Z,8.95
2022-10-26T09:28:49.476Z,6.57
2022-10-26T09:29:52.318Z,6.80
2022-10-26T09:30:56.387Z,7.57
2022-10-26T09:32:01.279Z,7.07
2022-10-26T09:33:12.258Z,7.00
2022-10-26T09:34:24.177Z,6.68
2022-10-26T09:36:31.907Z,6.18
2022-10-26T09:37:40.103Z,7.30
2022-10-26T09:38:47.616Z,6.37
2022-10-26T09:40:04.808Z,5.63
2022-10-26T09:41:14.819Z,6.95
2022-10-26T09:42:36.230Z,6.90
2022-10-26T09:44:01.223Z,6.70
2022-10-26T09:45:33.333Z,6.57
2022-10-26T09:46:55.322Z,7.22
2022-10-26T09:48:06.666Z,8.43
2022-10-26T09:49:12.143Z,8.02
2022-10-26T09:50:31.095Z,7.20
2022-10-26T09:51:38.312Z,9.13
2022-10-26T09:52:39.951Z,8.18
2022-10-26T09:53:41.545Z,8.23
2022-10-26T09:54:43.782Z,8.10
2022-10-26T09:55:48.301Z,8.97
2022-10-26T09:56:56.452Z,8.23
2022-10-26T09:58:03.810Z,8.60
2022-10-26T09:59:07.115Z,7.87
2022-10-26T10:00:17.113Z,7.63
2022-10-26T10:01:35.680Z,7.50
2022-10-26T10:02:45.041Z,6.47
2022-10-26T10:03:46.739Z,7.27
2022-10-26T10:04:48.591Z,6.57
2022-10-26T10:05:51.828Z,6.60
2022-10-26T10:07:14.077Z,6.57
2022-10-26T10:08:21.437Z,7.00
2022-10-26T10:09:24.826Z,7.03
2022-10-26T10:10:26.442Z,7.10
2022-10-26T10:11:38.765Z,6.97
2022-10-26T10:12:40.389Z,6.27
2022-10-26T10:13:46.189Z,6.37
2022-10-26T10:14:59.412Z,6.50
2022-10-26T10:16:03.628Z,6.93
2022-10-26T10:17:10.841Z,7.37
2022-10-26T10:18:20.930Z,7.10
2022-10-26T10:19:31.163Z,7.00
2022-10-26T10:20:34.160Z,6.80
2022-10-26T10:21:44.139Z,6.80
2022-10-26T10:22:56.174Z,7.20
2022-10-26T10:23:58.370Z,6.77
2022-10-26T10:25:02.214Z,6.60
2022-10-26T10:26:11.189Z,5.90
2022-10-26T10:27:13.165Z,7.20
2022-10-26T10:28:22.976Z,7.10
2022-10-26T10:29:29.793Z,6.70
2022-10-26T10:30:33.488Z,6.27
2022-10-26T10:31:35.183Z,6.67
2022-10-26T10:32:39.231Z,7.00
2022-10-26T10:33:45.271Z,6.30
2022-10-26T10:34:51.318Z,6.37
2022-10-26T10:35:53.048Z,6.10
2022-10-26T10:36:55.044Z,6.20
2022-10-26T10:37:57.559Z,6.70
2022-10-26T10:39:00.484Z,7.13
2022-10-26T10:40:06.932Z,5.50
2022-10-26T10:41:30.921Z,6.07
2022-10-26T10:42:39.447Z,5.50
2022-10-26T10:43:45.957Z,5.73
2022-10-26T10:44:52.875Z,6.40
2022-10-26T10:45:59.529Z,6.03
2022-10-26T10:47:07.110Z,6.40
2022-10-26T10:48:24.872Z,6.50
2022-10-26T10:49:28.674Z,7.30
2022-10-26T10:50:31.185Z,6.23
2022-10-26T10:51:39.811Z,6.70
2022-10-26T10:52:42.333Z,6.20
2022-10-26T10:53:43.924Z,6.80
2022-10-26T10:54:49.457Z,6.70
2022-10-26T10:56:15.743Z,6.40
2022-10-26T10:58:08.061Z,6.37
2022-10-26T10:59:31.332Z,5.80
2022-10-26T11:00:37.148Z,5.63
2022-10-26T11:01:42.945Z,6.03
2022-10-26T11:03:14.001Z,6.43
2022-10-26T11:04:52.201Z,5.50
2022-10-26T11:06:18.132Z,5.80
2022-10-26T11:07:21.488Z,6.00
2022-10-26T11:08:46.957Z,5.70
2022-10-26T11:09:50.253Z,5.73
2022-10-26T11:10:59.342Z,5.63
2022-10-26T11:12:07.128Z,4.60
2022-10-26T11:13:20.074Z,4.90
2022-10-26T11:14:26.403Z,5.50
2022-10-26T11:15:32.930Z,4.30
2022-10-26T11:16:50.186Z,4.00
2022-10-26T11:18:05.096Z,4.63
2022-10-26T11:19:34.460Z,4.00
2022-10-26T11:20:45.398Z,2.13
2022-10-26T11:21:51.585Z,1.70
2022-10-26T11:22:54.178Z,2.33
2022-10-26T11:24:01.987Z,2.13
2022-10-26T11:25:06.988Z,1.67
2022-10-26T11:26:14.440Z,1.47
2022-10-26T11:27:21.865Z,1.90
2022-10-26T11:28:45.807Z,2.40
2022-10-26T11:29:51.647Z,2.27
2022-10-26T11:31:00.209Z,2.20
2022-10-26T11:32:16.653Z,1.87
2022-10-26T11:33:30.991Z,1.70
2022-10-26T11:35:05.369Z,2.17
2022-10-26T11:36:16.135Z,1.83
2022-10-26T11:37:45.218Z,2.20
2022-10-26T11:39:25.906Z,1.87
2022-10-26T11:40:42.026Z,2.03
2022-10-26T11:41:53.135Z,1.80
2022-10-26T11:43:08.511Z,2.00
2022-10-26T11:44:30.484Z,1.80
2022-10-26T11:45:39.056Z,2.07
2022-10-26T11:46:49.731Z,1.77
2022-10-26T11:48:04.211Z,1.97
2022-10-26T11:49:11.917Z,1.80
2022-10-26T11:50:25.355Z,1.87
2022-10-26T11:51:44.494Z,1.97
2022-10-26T11:53:02.416Z,2.23
2022-10-26T11:54:11.911Z,1.93
2022-10-26T11:55:13.675Z,1.90
2022-10-26T11:56:33.077Z,2.00
2022-10-26T11:57:37.130Z,1.93
2022-10-26T11:58:39.763Z,1.60
2022-10-26T11:59:50.435Z,1.80
2022-10-26T12:01:05.075Z,2.30
2022-10-26T12:02:16.277Z,2.80
2022-10-26T12:03:23.359Z,1.90
2022-10-26T12:04:30.481Z,1.90
2022-10-26T12:05:32.036Z,1.70
2022-10-26T12:06:34.832Z,2.10
2022-10-26T12:07:39.998Z,1.87
2022-10-26T12:08:54.089Z,1.70
2022-10-26T12:09:57.279Z,2.30
2022-10-26T12:11:09.228Z,2.20
2022-10-26T12:12:23.907Z,1.67
2022-10-26T12:13:57.087Z,2.20
2022-10-26T12:15:35.525Z,2.17
2022-10-26T12:17:14.480Z,1.60
2022-10-26T12:18:55.919Z,1.60
2022-10-26T12:20:10.662Z,1.90
2022-10-26T12:21:15.147Z,2.47
2022-10-26T12:22:18.981Z,1.70
2022-10-26T12:23:33.950Z,2.07
2022-10-26T12:24:47.284Z,1.77
2022-10-26T12:25:49.159Z,2.00
2022-10-26T12:26:55.767Z,1.50
2022-10-26T12:28:00.018Z,1.93
2022-10-26T12:29:01.563Z,2.10
2022-10-26T12:30:12.083Z,1.90
2022-10-26T12:31:33.172Z,1.60
2022-10-26T12:32:36.477Z,1.83
2022-10-26T12:33:50.288Z,1.60
2022-10-26T12:34:52.018Z,1.77
2022-10-26T12:35:53.674Z,2.00
2022-10-26T12:36:55.433Z,1.77
2022-10-26T12:37:57.590Z,1.60
2022-10-26T12:39:00.798Z,1.87
2022-10-26T12:40:30.413Z,1.50
2022-10-26T12:41:33.178Z,1.40
2022-10-26T12:42:41.676Z,2.10
2022-10-26T12:44:53.368Z,1.83
2022-10-26T12:46:12.971Z,1.93
2022-10-26T12:47:29.783Z,1.53
2022-10-26T12:48:41.592Z,1.60
2022-10-26T12:49:59.442Z,1.63
2022-10-26T12:51:27.233Z,1.70
2022-10-26T12:52:40.301Z,1.73
2022-10-26T12:53:45.785Z,1.93
2022-10-26T12:55:13.183Z,1.70
2022-10-26T12:56:20.058Z,1.53
2022-10-26T12:57:35.392Z,1.60
2022-10-26T12:58:51.463Z,1.90
2022-10-26T13:00:02.880Z,2.13
2022-10-26T13:01:07.287Z,2.33
2022-10-26T13:02:36.025Z,2.17
2022-10-26T13:04:06.157Z,2.17
2022-10-26T13:05:28.796Z,2.10
2022-10-26T13:07:02.643Z,2.00
2022-10-26T13:08:09.692Z,1.70
2022-10-26T13:09:51.042Z,2.07
2022-10-26T13:11:12.829Z,1.60
2022-10-26T13:12:14.695Z,1.80
2022-10-26T13:13:23.923Z,2.33
2022-10-26T13:14:30.671Z,1.80
2022-10-26T13:15:53.743Z,2.10
2022-10-26T13:16:55.785Z,1.73
2022-10-26T13:18:17.846Z,1.70
2022-10-26T13:19:30.527Z,1.67
2022-10-26T13:20:34.036Z,1.73
2022-10-26T13:21:48.797Z,2.37
2022-10-26T13:22:50.853Z,2.10
2022-10-26T13:23:58.394Z,2.10
2022-10-26T13:25:05.585Z,1.63
2022-10-26T13:26:14.172Z,1.73
2022-10-26T13:27:15.740Z,1.90
2022-10-26T13:28:39.097Z,2.40
2022-10-26T13:30:18.728Z,2.17
2022-10-26T13:31:29.634Z,1.90
2022-10-26T13:32:35.506Z,2.17
2022-10-26T13:33:39.734Z,1.70
2022-10-26T13:34:43.849Z,1.57
2022-10-26T13:35:46.934Z,1.73
2022-10-26T13:37:15.561Z,2.10
2022-10-26T13:38:21.409Z,1.73
2022-10-26T13:39:33.043Z,2.07
2022-10-26T13:40:38.182Z,1.67
2022-10-26T13:41:44.386Z,1.90
2022-10-26T13:42:53.567Z,1.77
2022-10-26T13:43:55.852Z,2.00
2022-10-26T13:45:19.377Z,2.20
2022-10-26T13:46:27.616Z,2.60
2022-10-26T13:47:41.429Z,1.70
2022-10-26T13:48:45.991Z,2.03
2022-10-26T13:49:51.076Z,2.10
2022-10-26T13:50:55.434Z,2.13
2022-10-26T13:52:01.679Z,2.07
2022-10-26T13:53:20.138Z,1.97
2022-10-26T13:54:44.148Z,2.10
2022-10-26T13:55:54.054Z,2.00
2022-10-26T13:57:15.274Z,1.70
2022-10-26T13:58:40.617Z,1.90
2022-10-26T13:59:44.891Z,2.03
2022-10-26T14:01:04.827Z,2.80
2022-10-26T14:02:26.866Z,2.10
2022-10-26T14:03:28.558Z,1.90
2022-10-26T14:04:30.121Z,2.13
2022-10-26T14:05:31.926Z,1.80
2022-10-26T14:06:38.552Z,2.10
2022-10-26T14:07:55.607Z,2.00
2022-10-26T14:09:01.921Z,2.03
2022-10-26T14:10:04.357Z,2.10
2022-10-26T14:11:06.071Z,2.17
2022-10-26T14:12:11.457Z,1.80
2022-10-26T14:13:16.551Z,1.97
2022-10-26T14:14:24.078Z,1.80
2022-10-26T14:15:30.671Z,2.00
2022-10-26T14:16:34.273Z,1.90
2022-10-26T14:17:36.424Z,1.90
2022-10-26T14:18:38.723Z,2.00
2022-10-26T14:19:41.346Z,2.30
2022-10-26T14:20:51.521Z,2.37
2022-10-26T14:21:53.944Z,2.00
2022-10-26T14:22:55.814Z,2.23
2022-10-26T14:23:58.526Z,2.27
2022-10-26T14:25:01.134Z,2.27
2022-10-26T14:26:03.891Z,2.47
2022-10-26T14:27:16.033Z,2.17
2022-10-26T14:28:25.964Z,2.60
2022-10-26T14:29:32.436Z,2.70
2022-10-26T14:30:34.140Z,2.40
2022-10-26T14:31:38.478Z,2.10
2022-10-26T14:32:40.088Z,2.37
2022-10-26T14:33:41.730Z,2.23
2022-10-26T14:34:43.334Z,2.23
2022-10-26T14:35:45.684Z,2.10
2022-10-26T14:36:55.807Z,2.23
2022-10-26T14:38:04.492Z,2.30
2022-10-26T14:39:12.429Z,2.63
2022-10-26T14:40:20.783Z,2.83
2022-10-26T14:41:23.185Z,2.77
2022-10-26T14:42:38.308Z,2.50
2022-10-26T14:43:40.141Z,2.30
2022-10-26T14:44:41.876Z,2.73
2022-10-26T14:45:49.670Z,2.30
2022-10-26T14:46:52.431Z,2.70
2022-10-26T14:47:55.018Z,2.70
2022-10-26T14:48:59.340Z,2.90
2022-10-26T14:50:02.285Z,2.80
2022-10-26T14:51:15.448Z,2.50
2022-10-26T14:52:30.356Z,2.70
2022-10-26T14:53:52.267Z,2.77
2022-10-26T14:55:14.005Z,2.80
2022-10-26T14:56:40.225Z,2.30
2022-10-26T14:57:44.769Z,2.73
2022-10-26T14:58:46.463Z,2.20
2022-10-26T15:00:00.989Z,2.53
2022-10-26T15:01:35.379Z,2.30
2022-10-26T15:02:38.245Z,2.60
2022-10-26T15:03:40.583Z,2.90
2022-10-26T15:04:57.127Z,2.93
2022-10-26T15:05:58.682Z,3.50
2022-10-26T15:07:15.248Z,2.50